Tropical Cyclones
[Index]
Main Index Home Page Stock Weather Photos Extreme Storms Discussion Storm News and Storm Chasing Reports Tropical Cyclones / Hurricanes / Typhoons Weather Data and Links Wild Fires / Bushfires Weather Observation Techniques Weather Picture Catalogue Tornado Pictures and Reports Stock Video Footage and DVDs for sale
Season 1990-1991 Tropical Cyclone ELMA Track Map
Season 1990-1991 Summaries: [BoM-AU] [JTWC-AU] [JTWC-SIO] [JTWC-SPAC] [JTWC-SH]
<<- Previous TC | BoM 1990-1991 Season | Next TC ->>

click for intensity scale information  Lat/long Grid: Show Hide

 Date Labels: Show Hide

Bureau of Meteorology Tropical Cyclone Data

Name: ELMA
Number: 738 / 199091_06

26 Feb 1991 00:00 UTC to 05 Mar 1991 00:00 UTC

    date/time    lat    long    hPa   cat  kts
1991-02-26 00    9.4    88.1   1000         31          
1991-02-26 06   10.3    88.2   1000         31          
1991-02-26 12   11.0    88.4   1000         31          
1991-02-26 18   11.8    88.6    995    1    39          
1991-02-27 00   12.8    88.7    990    1    47          
1991-02-27 06   13.7    88.8    990    1    47          
1991-02-27 12   14.5    88.8    985    2    54          
1991-02-27 18   15.3    88.6    980    2    60          
1991-02-28 00   16.0    88.4    980    2    60          
1991-02-28 06   16.8    88.4    975    2    66          
1991-02-28 12   17.4    88.5    970    3    74          
1991-02-28 18   18.0    88.9    965    3    80          
1991-03-01 00   18.6    89.3    965    3    80          
1991-03-01 06   19.3    89.3    970    3    74          
1991-03-01 12   20.1    89.4    970    3    74          
1991-03-01 18   20.7    89.8    975    2    66          
1991-03-02 00   21.2    90.2    975    2    66          
1991-03-02 06   21.8    90.6    980    2    60          
1991-03-02 12   22.4    91.0    985    2    54          
1991-03-02 18   23.0    91.6    990    1    47          
1991-03-03 00   23.5    92.1    990    1    47          
1991-03-03 06   24.3    93.5    995    1    39          
1991-03-03 12   25.2    94.2   1000         31          
1991-03-03 18   26.1    93.9   1000         31          
1991-03-04 00   27.0    93.5   1005         23          
1991-03-04 06   27.5    92.9   1005         23          
1991-03-04 12   27.2    91.5   1005         23          
1991-03-04 18   26.6    90.4   1005         23          
1991-03-05 00   26.0    89.3   1005         23          
Winds are 10-min average.

Tropical cyclone tracks developed by Michael Bath using data from the Bureau of Meteorology and Google Maps.


[Australian Severe Weather index] [Copyright Notice] [Email Contacts] [Search This Site] [Privacy Policy]
Document: tropical_cyclone_elma.htm Updated: 30 May 2013